Time;durP1;ratioP1;P1;durP2;ratioP2;P2;SDS_P1;SDS_P2;PMS_P1;PMS_P2;Temp;Humidity;BMP_temperature;BMP_pressure;BME280_temperature;BME280_humidity;BME280_pressure;Samples;Min_cycle;Max_cycle;Signal;HPM_P1;HPM_P2
2021/06/12 00:00:14;;;;;;;14.50;8.75;;;;;;;16.02;100.00;96555.75;5038620;28;20209;-73
2021/06/12 00:02:40;;;;;;;15.43;9.18;;;;;;;15.74;100.00;96553.47;5037906;28;20237;-74
2021/06/12 00:05:08;;;;;;;18.50;9.27;;;;;;;15.84;100.00;96562.69;5037772;28;20221;-74
2021/06/12 00:07:36;;;;;;;13.60;9.52;;;;;;;15.93;100.00;96554.31;5038314;28;20259;-75
2021/06/12 00:10:05;;;;;;;13.45;9.73;;;;;;;16.04;100.00;96553.72;5039130;28;21018;-73
2021/06/12 00:12:31;;;;;;;14.18;10.15;;;;;;;15.98;100.00;96559.84;5038950;28;20212;-75
2021/06/12 00:14:57;;;;;;;17.20;11.35;;;;;;;16.15;100.00;96560.25;5038160;28;20229;-72
2021/06/12 00:17:23;;;;;;;12.93;8.77;;;;;;;16.13;100.00;96560.47;5037450;28;20300;-75
2021/06/12 00:19:49;;;;;;;11.93;8.57;;;;;;;16.03;100.00;96562.69;5037951;28;20212;-74
2021/06/12 00:22:15;;;;;;;21.05;9.60;;;;;;;15.95;100.00;96568.22;5038020;28;20232;-73
2021/06/12 00:24:43;;;;;;;12.88;9.13;;;;;;;16.08;100.00;96568.25;5038683;28;20225;-73
2021/06/12 00:27:09;;;;;;;11.98;9.02;;;;;;;15.98;100.00;96569.66;5041143;28;20201;-72
2021/06/12 00:29:35;;;;;;;14.20;8.75;;;;;;;15.95;100.00;96564.75;5042379;28;20560;-72
2021/06/12 00:32:01;;;;;;;10.98;8.45;;;;;;;15.96;100.00;96572.53;5042572;28;20267;-75
2021/06/12 00:34:27;;;;;;;13.18;9.40;;;;;;;15.98;100.00;96564.34;5041575;28;20231;-74
2021/06/12 00:36:53;;;;;;;18.35;9.25;;;;;;;15.86;100.00;96568.63;5040450;28;20587;-74
2021/06/12 00:39:19;;;;;;;12.85;8.80;;;;;;;15.84;100.00;96563.47;5042385;28;20295;-72
2021/06/12 00:41:47;;;;;;;10.63;8.68;;;;;;;15.90;100.00;96565.34;5041750;28;20231;-74
2021/06/12 00:44:13;;;;;;;12.02;8.57;;;;;;;15.85;100.00;96565.13;5041886;28;20232;-72
2021/06/12 00:46:39;;;;;;;12.23;8.77;;;;;;;15.78;100.00;96570.63;5041346;28;20219;-74
2021/06/12 00:49:05;;;;;;;13.65;8.90;;;;;;;15.82;100.00;96569.22;5041267;28;21377;-72
2021/06/12 00:51:31;;;;;;;15.35;10.13;;;;;;;15.70;100.00;96576.13;5042574;28;20236;-72
2021/06/12 00:53:57;;;;;;;14.65;9.18;;;;;;;15.61;100.00;96583.47;5041332;28;21261;-72
2021/06/12 00:56:23;;;;;;;13.20;9.50;;;;;;;15.72;100.00;96579.41;5041258;28;20212;-73
2021/06/12 00:58:52;;;;;;;12.40;8.82;;;;;;;15.67;100.00;96584.50;5041959;28;20206;-74
2021/06/12 01:01:20;;;;;;;15.43;9.32;;;;;;;15.54;100.00;96581.78;5041449;28;20205;-74
2021/06/12 01:03:47;;;;;;;13.30;8.38;;;;;;;15.35;100.00;96574.56;5041028;28;20225;-72
2021/06/12 01:06:15;;;;;;;11.85;9.63;;;;;;;15.49;100.00;96576.25;5040326;28;21139;-74
2021/06/12 01:08:42;;;;;;;16.10;9.52;;;;;;;15.36;100.00;96571.72;5041578;28;20209;-72
2021/06/12 01:11:09;;;;;;;16.95;10.20;;;;;;;15.26;100.00;96573.09;5041045;28;20848;-73
2021/06/12 01:13:46;;;;;;;15.98;10.75;;;;;;;15.44;100.00;96573.38;5041252;28;20607;-75
2021/06/12 01:16:19;;;;;;;16.48;12.77;;;;;;;15.60;100.00;96568.53;5040987;28;20231;-73
2021/06/12 01:18:46;;;;;;;16.20;10.65;;;;;;;15.60;100.00;96555.25;5041031;28;20216;-73
2021/06/12 01:21:24;;;;;;;14.05;10.25;;;;;;;15.58;100.00;96551.16;5041693;28;20593;-72
2021/06/12 01:24:44;;;;;;;14.95;10.38;;;;;;;15.47;100.00;96543.78;5041460;28;20240;-74
2021/06/12 01:27:49;;;;;;;14.00;10.23;;;;;;;15.58;100.00;96548.50;4978726;28;20211;-73
2021/06/12 01:30:18;;;;;;;16.05;10.98;;;;;;;15.56;100.00;96543.38;5041074;28;20217;-74
2021/06/12 01:32:48;;;;;;;14.68;11.43;;;;;;;15.66;100.00;96543.03;5041469;28;20227;-72
2021/06/12 01:35:20;;;;;;;17.27;10.18;;;;;;;15.60;100.00;96539.31;5040960;28;20225;-74
2021/06/12 01:37:47;;;;;;;15.02;10.32;;;;;;;15.59;100.00;96545.66;5040256;28;20232;-73
2021/06/12 01:40:15;;;;;;;17.73;10.77;;;;;;;15.62;100.00;96536.47;5040288;28;20217;-73
2021/06/12 01:42:44;;;;;;;14.73;11.60;;;;;;;15.62;100.00;96533.81;5041258;28;20714;-72
2021/06/12 01:45:10;;;;;;;17.02;10.68;;;;;;;15.66;100.00;96532.41;5039082;28;20221;-72
2021/06/12 01:47:38;;;;;;;16.40;11.35;;;;;;;15.53;100.00;96535.00;5040265;28;20201;-73
2021/06/12 01:50:07;;;;;;;20.20;11.52;;;;;;;15.54;100.00;96518.03;5040710;28;20227;-73
2021/06/12 01:52:34;;;;;;;16.85;10.57;;;;;;;15.59;100.00;96531.53;5041039;28;20204;-72
2021/06/12 01:55:01;;;;;;;14.90;10.50;;;;;;;15.57;100.00;96528.28;5039755;28;20225;-75
2021/06/12 01:57:28;;;;;;;18.92;12.50;;;;;;;15.58;100.00;96540.53;5040186;28;20207;-73
2021/06/12 01:59:57;;;;;;;17.75;12.20;;;;;;;15.55;100.00;96525.81;5040409;28;20201;-72
2021/06/12 02:02:23;;;;;;;15.85;12.55;;;;;;;15.59;100.00;96526.22;5040432;28;20233;-75
2021/06/12 02:04:51;;;;;;;15.27;12.18;;;;;;;15.61;100.00;96514.38;5036764;28;20228;-74
2021/06/12 02:07:18;;;;;;;22.65;12.48;;;;;;;15.64;100.00;96521.94;5040406;28;20201;-72
2021/06/12 02:09:47;;;;;;;17.60;13.90;;;;;;;15.66;100.00;96519.13;5040051;28;20201;-75
2021/06/12 02:12:14;;;;;;;17.55;12.88;;;;;;;15.58;100.00;96516.63;5040568;28;20205;-73
2021/06/12 02:14:42;;;;;;;19.08;14.25;;;;;;;15.68;100.00;96514.41;5039715;28;21091;-74
2021/06/12 02:17:09;;;;;;;19.45;14.32;;;;;;;15.55;100.00;96519.69;5039453;28;20569;-73
2021/06/12 02:19:37;;;;;;;19.92;13.68;;;;;;;15.57;100.00;96523.78;5040549;28;20201;-73
2021/06/12 02:22:06;;;;;;;19.65;13.13;;;;;;;15.54;100.00;96526.84;5039934;28;20201;-73
2021/06/12 02:24:33;;;;;;;19.67;14.98;;;;;;;15.50;100.00;96535.41;5039812;28;20232;-72
2021/06/12 02:26:59;;;;;;;18.70;14.65;;;;;;;15.56;100.00;96542.59;5039309;28;20205;-72
2021/06/12 02:29:27;;;;;;;19.83;14.63;;;;;;;15.59;100.00;96537.69;5039922;28;20206;-73
2021/06/12 02:32:02;;;;;;;19.05;14.25;;;;;;;15.68;100.00;96533.00;5040111;28;20201;-74
2021/06/12 02:34:29;;;;;;;19.92;14.70;;;;;;;15.74;100.00;96533.00;5040125;28;20927;-75
2021/06/12 02:36:55;;;;;;;20.65;15.52;;;;;;;15.69;100.00;96535.44;5038584;28;20613;-72
2021/06/12 02:39:22;;;;;;;21.63;15.85;;;;;;;15.55;100.00;96536.44;5038991;28;20267;-73
2021/06/12 02:41:48;;;;;;;20.00;13.95;;;;;;;15.45;100.00;96536.00;5039605;28;20205;-73
2021/06/12 02:44:14;;;;;;;17.77;13.68;;;;;;;15.59;100.00;96536.84;5040646;28;20236;-72
2021/06/12 02:46:42;;;;;;;20.15;14.48;;;;;;;15.44;100.00;96550.31;5038706;28;20209;-74
2021/06/12 02:49:10;;;;;;;21.35;14.57;;;;;;;15.45;100.00;96540.50;5039728;28;20197;-74
2021/06/12 02:51:40;;;;;;;22.95;14.68;;;;;;;15.44;100.00;96539.69;5040248;28;20213;-73
2021/06/12 02:54:07;;;;;;;18.30;14.10;;;;;;;15.46;100.00;96539.47;5039781;28;20213;-72
2021/06/12 02:56:34;;;;;;;21.40;13.93;;;;;;;15.45;100.00;96541.31;5037749;28;20205;-72
2021/06/12 02:59:04;;;;;;;19.02;13.27;;;;;;;15.42;100.00;96539.06;5039597;28;20213;-74
2021/06/12 03:01:32;;;;;;;19.20;13.45;;;;;;;15.44;100.00;96544.16;5038744;28;20262;-73
2021/06/12 03:03:59;;;;;;;17.80;13.40;;;;;;;15.40;100.00;96532.28;5038639;28;20233;-73
2021/06/12 03:06:27;;;;;;;17.45;13.20;;;;;;;15.40;100.00;96533.13;5038174;28;20205;-75
2021/06/12 03:08:54;;;;;;;19.75;14.52;;;;;;;15.32;100.00;96525.34;5038937;28;20862;-73
2021/06/12 03:11:22;;;;;;;19.27;15.20;;;;;;;15.36;100.00;96536.38;5040232;28;20213;-74
2021/06/12 03:13:51;;;;;;;21.10;14.93;;;;;;;15.28;100.00;96533.91;5039591;28;20574;-75
2021/06/12 03:16:18;;;;;;;22.00;15.30;;;;;;;15.27;100.00;96540.22;5038825;28;20235;-74
2021/06/12 03:18:47;;;;;;;23.98;15.82;;;;;;;15.33;100.00;96542.09;5039635;28;20208;-72
2021/06/12 03:21:14;;;;;;;21.48;15.25;;;;;;;15.17;100.00;96550.34;5038777;28;20213;-74
2021/06/12 03:23:42;;;;;;;20.88;14.32;;;;;;;15.17;100.00;96547.69;5038857;28;20229;-72
2021/06/12 03:26:09;;;;;;;22.05;15.52;;;;;;;15.19;100.00;96556.28;5037407;28;20225;-73
2021/06/12 03:28:35;;;;;;;24.73;15.20;;;;;;;15.14;100.00;96540.13;5039614;28;20216;-74
2021/06/12 03:31:04;;;;;;;22.75;15.23;;;;;;;15.16;100.00;96539.94;5038973;28;21491;-74
2021/06/12 03:33:31;;;;;;;19.38;14.65;;;;;;;15.13;100.00;96538.50;5038858;28;20225;-74
2021/06/12 03:35:58;;;;;;;23.90;14.57;;;;;;;15.14;100.00;96540.13;5037689;28;20205;-73
2021/06/12 03:38:26;;;;;;;23.80;15.35;;;;;;;15.12;100.00;96544.84;5038947;28;20200;-73
2021/06/12 03:40:52;;;;;;;21.02;14.73;;;;;;;15.07;100.00;96547.25;5039225;28;20214;-72
2021/06/12 03:43:19;;;;;;;19.83;14.68;;;;;;;15.10;100.00;96540.75;5039084;28;20221;-72
2021/06/12 03:45:47;;;;;;;20.27;14.80;;;;;;;15.06;100.00;96547.44;5037696;28;20677;-72
2021/06/12 03:48:15;;;;;;;23.42;14.50;;;;;;;15.18;100.00;96548.53;5038074;28;20209;-72
2021/06/12 03:50:42;;;;;;;22.67;14.98;;;;;;;15.27;100.00;96553.50;5038309;28;20314;-73
2021/06/12 03:53:09;;;;;;;22.25;15.50;;;;;;;15.37;100.00;96556.59;5038701;28;20201;-73
2021/06/12 03:55:35;;;;;;;22.90;15.75;;;;;;;15.11;100.00;96553.81;5038673;28;20586;-72
2021/06/12 03:58:01;;;;;;;22.13;15.82;;;;;;;15.14;100.00;96561.38;5038111;28;20225;-73
2021/06/12 04:00:28;;;;;;;20.02;15.27;;;;;;;15.16;100.00;96558.50;5037249;28;20201;-72
2021/06/12 04:02:54;;;;;;;23.17;15.80;;;;;;;15.15;100.00;96565.66;5037947;28;20233;-72
2021/06/12 04:05:22;;;;;;;23.30;15.98;;;;;;;15.23;100.00;96568.19;5037214;28;20225;-72
2021/06/12 04:07:48;;;;;;;22.02;15.63;;;;;;;15.27;100.00;96559.66;5038236;28;20205;-72
2021/06/12 04:10:14;;;;;;;24.60;15.43;;;;;;;15.24;100.00;96561.88;5037784;28;21050;-74
2021/06/12 04:12:40;;;;;;;21.63;14.48;;;;;;;15.14;100.00;96569.34;5037670;28;20209;-72
2021/06/12 04:15:07;;;;;;;19.55;14.65;;;;;;;15.27;100.00;96572.09;5036336;28;20228;-72
2021/06/12 04:17:33;;;;;;;22.42;14.68;;;;;;;15.18;100.00;96562.59;5037599;28;20274;-73
2021/06/12 04:19:59;;;;;;;24.25;14.18;;;;;;;15.13;100.00;96570.34;5038006;28;20959;-73
2021/06/12 04:22:27;;;;;;;18.70;14.57;;;;;;;15.22;100.00;96577.16;5037543;28;20205;-72
2021/06/12 04:24:53;;;;;;;21.48;14.38;;;;;;;15.21;100.00;96570.25;5038474;28;20225;-72
2021/06/12 04:27:19;;;;;;;24.00;14.68;;;;;;;15.22;100.00;96571.03;5037833;28;20207;-72
2021/06/12 04:29:45;;;;;;;22.17;15.13;;;;;;;15.26;100.00;96571.28;5037585;28;20212;-73
2021/06/12 04:32:11;;;;;;;20.83;15.68;;;;;;;15.38;100.00;96576.84;5038399;28;20205;-74
2021/06/12 04:34:37;;;;;;;21.38;14.50;;;;;;;15.40;100.00;96575.63;5037515;28;20221;-73
2021/06/12 04:37:04;;;;;;;21.88;14.90;;;;;;;15.47;100.00;96575.66;5037209;28;20262;-72
2021/06/12 04:39:31;;;;;;;17.52;13.95;;;;;;;15.51;100.00;96575.03;5037214;28;20351;-74
2021/06/12 04:41:57;;;;;;;22.20;14.70;;;;;;;15.56;100.00;96575.25;5037611;28;20209;-74
2021/06/12 04:44:23;;;;;;;24.75;14.20;;;;;;;15.54;100.00;96579.13;5038893;28;20237;-71
2021/06/12 04:46:49;;;;;;;21.25;15.07;;;;;;;15.61;100.00;96572.84;5037316;28;20205;-72
2021/06/12 04:49:15;;;;;;;20.40;14.35;;;;;;;15.67;100.00;96572.03;5038471;28;20224;-73
2021/06/12 04:51:41;;;;;;;21.67;14.50;;;;;;;15.68;100.00;96567.53;5038182;28;20575;-74
2021/06/12 04:54:08;;;;;;;19.73;14.10;;;;;;;15.75;100.00;96571.03;5038244;28;20225;-73
2021/06/12 04:56:35;;;;;;;20.52;15.18;;;;;;;15.76;100.00;96568.19;5036705;28;20209;-71
2021/06/12 04:59:01;;;;;;;20.70;14.52;;;;;;;15.76;100.00;96570.00;5037202;28;20208;-72
2021/06/12 05:01:27;;;;;;;19.17;14.18;;;;;;;15.81;100.00;96567.56;5036723;28;20208;-76
2021/06/12 05:03:53;;;;;;;20.48;15.20;;;;;;;15.87;100.00;96568.41;5037126;28;20241;-71
2021/06/12 05:06:19;;;;;;;22.33;15.05;;;;;;;16.01;100.00;96570.09;5038057;28;20723;-76
2021/06/12 05:08:45;;;;;;;19.33;14.68;;;;;;;16.07;100.00;96574.56;5038285;28;20205;-72
2021/06/12 05:11:12;;;;;;;19.23;14.63;;;;;;;16.21;100.00;96578.06;5037677;28;20237;-71
2021/06/12 05:13:39;;;;;;;24.33;14.88;;;;;;;16.20;100.00;96573.78;5040669;28;20217;-72
2021/06/12 05:16:05;;;;;;;19.98;14.57;;;;;;;16.32;100.00;96573.00;5040768;28;20262;-71
2021/06/12 05:18:39;;;;;;;19.23;14.73;;;;;;;16.39;100.00;96568.50;5041551;28;20201;-72
2021/06/12 05:21:05;;;;;;;24.92;15.25;;;;;;;16.50;100.00;96571.34;5041478;28;20695;-72
2021/06/12 05:23:31;;;;;;;19.77;15.98;;;;;;;16.43;100.00;96583.00;5041532;28;20240;-73
2021/06/12 05:25:57;;;;;;;22.83;16.15;;;;;;;16.58;100.00;96581.78;5041119;28;20208;-72
2021/06/12 05:28:23;;;;;;;21.48;14.38;;;;;;;16.64;100.00;96588.97;5040827;28;20258;-74
2021/06/12 05:30:50;;;;;;;24.48;15.68;;;;;;;16.77;100.00;96588.94;5042461;28;20359;-75
2021/06/12 05:33:16;;;;;;;17.52;13.55;;;;;;;16.73;100.00;96589.56;5041178;28;20202;-71
2021/06/12 05:35:42;;;;;;;17.95;13.38;;;;;;;16.84;100.00;96592.44;5040391;28;20212;-72
2021/06/12 05:38:09;;;;;;;18.70;14.25;;;;;;;16.86;100.00;96597.53;5041582;28;20205;-74
2021/06/12 05:40:35;;;;;;;18.45;13.35;;;;;;;16.90;100.00;96593.44;5040059;28;20213;-71
2021/06/12 05:43:00;;;;;;;19.73;13.73;;;;;;;16.90;100.00;96598.75;5041083;28;20239;-71
2021/06/12 05:45:27;;;;;;;18.20;13.07;;;;;;;17.06;100.00;96593.00;5040349;28;20716;-71
2021/06/12 05:47:54;;;;;;;21.77;13.23;;;;;;;17.14;100.00;96594.44;5041203;28;20205;-71
2021/06/12 05:50:20;;;;;;;17.58;13.45;;;;;;;17.29;100.00;96594.22;5040686;28;20263;-71
2021/06/12 05:52:46;;;;;;;18.50;13.65;;;;;;;17.29;100.00;96595.00;5040956;28;20216;-72
2021/06/12 05:55:12;;;;;;;18.17;13.50;;;;;;;17.47;100.00;96586.34;5040289;28;20225;-75
2021/06/12 05:57:38;;;;;;;18.60;13.45;;;;;;;17.53;100.00;96588.19;5040865;28;20220;-71
2021/06/12 06:00:06;;;;;;;19.02;14.00;;;;;;;17.68;100.00;96584.22;5041007;28;20211;-75
2021/06/12 06:02:32;;;;;;;16.83;12.98;;;;;;;17.69;100.00;96591.16;5040626;28;20212;-72
2021/06/12 06:04:59;;;;;;;15.95;11.63;;;;;;;17.74;100.00;96578.03;5039652;28;20225;-71
2021/06/12 06:07:25;;;;;;;19.35;13.07;;;;;;;17.98;100.00;96585.28;5039344;28;20281;-74
2021/06/12 06:09:51;;;;;;;16.60;12.40;;;;;;;18.15;100.00;96576.56;5039546;28;20750;-72
2021/06/12 06:12:17;;;;;;;19.15;13.23;;;;;;;18.20;100.00;96574.13;5040976;28;20570;-71
2021/06/12 06:14:43;;;;;;;16.52;11.88;;;;;;;18.25;100.00;96576.91;5040564;28;20248;-71
2021/06/12 06:17:09;;;;;;;18.00;12.55;;;;;;;18.44;100.00;96576.81;5040128;28;20296;-71
2021/06/12 06:19:35;;;;;;;18.50;12.80;;;;;;;18.54;100.00;96563.75;5040219;28;21381;-72
2021/06/12 06:22:02;;;;;;;21.13;13.77;;;;;;;18.76;100.00;96570.38;5040499;28;20215;-72
2021/06/12 06:24:28;;;;;;;17.08;12.88;;;;;;;18.91;100.00;96576.16;5038631;28;20244;-71
2021/06/12 06:26:54;;;;;;;19.38;13.52;;;;;;;18.84;100.00;96572.75;5038055;28;20292;-74
2021/06/12 06:29:20;;;;;;;16.25;13.07;;;;;;;18.86;100.00;96572.53;5040652;28;20209;-72
2021/06/12 06:31:46;;;;;;;20.25;13.27;;;;;;;18.86;100.00;96572.53;5039569;28;21301;-72
2021/06/12 06:34:12;;;;;;;19.48;14.50;;;;;;;18.99;100.00;96570.53;5039133;28;20228;-74
2021/06/12 06:36:39;;;;;;;17.25;12.15;;;;;;;19.06;99.53;96566.00;5038849;28;20205;-73
2021/06/12 06:39:06;;;;;;;26.85;14.27;;;;;;;19.26;100.00;96566.63;5039697;28;20205;-72
2021/06/12 06:41:32;;;;;;;20.63;14.20;;;;;;;19.41;99.51;96564.38;5039569;28;20251;-71
2021/06/12 06:43:59;;;;;;;18.98;13.55;;;;;;;19.52;98.92;96560.97;5040562;28;20248;-72
2021/06/12 06:46:25;;;;;;;18.08;13.07;;;;;;;19.57;97.43;96565.38;5039383;28;20216;-74
2021/06/12 06:48:51;;;;;;;16.73;13.13;;;;;;;19.71;95.88;96550.81;5039059;28;20316;-72
2021/06/12 06:51:16;;;;;;;15.73;12.60;;;;;;;19.85;95.04;96559.50;5039150;28;20201;-72
2021/06/12 06:53:43;;;;;;;17.73;12.23;;;;;;;19.98;94.42;96557.47;5038800;28;20684;-71
2021/06/12 06:56:10;;;;;;;17.95;12.35;;;;;;;20.06;95.35;96559.84;5037744;28;20934;-74
2021/06/12 06:58:38;;;;;;;20.23;12.95;;;;;;;20.21;95.51;96554.88;5039597;28;20212;-72
2021/06/12 07:01:04;;;;;;;18.55;13.20;;;;;;;20.28;94.13;96569.00;5038948;28;20896;-73
2021/06/12 07:03:30;;;;;;;18.45;12.50;;;;;;;20.37;94.68;96557.72;5039190;28;20232;-74
2021/06/12 07:05:56;;;;;;;19.65;12.35;;;;;;;20.48;93.19;96562.28;5038675;28;20205;-75
2021/06/12 07:08:22;;;;;;;15.90;12.20;;;;;;;20.60;93.58;96567.66;5039299;28;20216;-72
2021/06/12 07:10:49;;;;;;;14.85;11.90;;;;;;;20.65;91.70;96573.16;5038798;28;20209;-72
2021/06/12 07:13:21;;;;;;;22.60;12.45;;;;;;;20.78;89.62;96578.31;5037900;28;20201;-74
2021/06/12 07:15:47;;;;;;;17.70;12.25;;;;;;;20.79;88.51;96580.75;5037628;28;20224;-72
2021/06/12 07:18:14;;;;;;;15.80;12.07;;;;;;;20.75;87.80;96582.28;5038205;28;20217;-71
2021/06/12 07:20:40;;;;;;;17.27;12.55;;;;;;;20.71;89.86;96572.19;5038726;28;20212;-74
2021/06/12 07:23:06;;;;;;;15.75;11.88;;;;;;;20.58;89.33;96575.09;5038544;28;20225;-72
2021/06/12 07:25:32;;;;;;;14.98;11.05;;;;;;;20.62;86.74;96577.09;5037757;28;20254;-72
2021/06/12 07:27:58;;;;;;;14.30;10.98;;;;;;;20.81;87.41;96580.53;5037597;28;20209;-71
2021/06/12 07:30:26;;;;;;;18.73;11.60;;;;;;;20.82;86.19;96582.16;5038812;28;20197;-72
2021/06/12 07:32:52;;;;;;;12.93;11.02;;;;;;;21.01;87.52;96577.25;5037890;28;20213;-72
2021/06/12 07:35:18;;;;;;;15.60;10.52;;;;;;;21.20;83.38;96576.09;5036826;28;20248;-71
2021/06/12 07:37:44;;;;;;;16.33;11.13;;;;;;;21.32;83.42;96584.13;5039242;28;20201;-72
2021/06/12 07:40:10;;;;;;;15.73;11.90;;;;;;;21.34;83.50;96588.19;5039161;28;20695;-72
2021/06/12 07:42:36;;;;;;;14.35;10.98;;;;;;;21.60;83.73;96577.00;5038118;28;20205;-72
2021/06/12 07:45:03;;;;;;;18.30;11.20;;;;;;;21.66;82.47;96574.16;5037275;28;20319;-72
2021/06/12 07:47:31;;;;;;;23.30;10.68;;;;;;;21.65;81.70;96574.41;5038751;28;20212;-72
2021/06/12 07:49:56;;;;;;;14.55;10.15;;;;;;;21.75;83.93;96574.63;5038348;28;20205;-72
2021/06/12 07:52:23;;;;;;;15.93;10.80;;;;;;;21.81;82.07;96573.69;5038280;28;20215;-72
2021/06/12 07:54:48;;;;;;;12.20;10.07;;;;;;;21.84;82.21;96573.19;5037535;28;20247;-71
2021/06/12 07:57:14;;;;;;;13.70;10.80;;;;;;;22.04;85.05;96567.16;5037420;28;21032;-74
2021/06/12 07:59:40;;;;;;;13.32;10.43;;;;;;;22.17;84.63;96566.88;5038510;28;20244;-71
2021/06/12 08:02:07;;;;;;;13.88;10.18;;;;;;;22.34;82.56;96570.44;5037631;28;20209;-71
2021/06/12 08:04:34;;;;;;;20.23;10.35;;;;;;;22.47;81.55;96570.13;5038003;28;20232;-73
2021/06/12 08:07:00;;;;;;;21.05;10.88;;;;;;;22.53;83.11;96563.81;5037045;28;20217;-72
2021/06/12 08:09:26;;;;;;;12.98;10.25;;;;;;;22.65;78.22;96567.22;5038380;28;20305;-71
2021/06/12 08:11:52;;;;;;;20.48;10.55;;;;;;;22.56;78.09;96567.88;5038198;28;20213;-72
2021/06/12 08:14:19;;;;;;;20.27;10.95;;;;;;;22.60;79.57;96572.50;5037638;28;20271;-71
2021/06/12 08:16:45;;;;;;;18.85;10.40;;;;;;;22.46;79.13;96565.00;5036777;28;20743;-72
2021/06/12 08:19:11;;;;;;;12.93;10.27;;;;;;;22.63;78.19;96560.47;5037370;28;20219;-74
2021/06/12 08:21:38;;;;;;;15.02;10.88;;;;;;;22.91;76.19;96566.56;5038457;28;20209;-72
2021/06/12 08:24:05;;;;;;;12.88;9.75;;;;;;;23.15;76.33;96573.44;5038122;28;20235;-74
2021/06/12 08:26:31;;;;;;;13.15;9.88;;;;;;;23.48;78.26;96561.53;5036937;28;20298;-72
2021/06/12 08:28:57;;;;;;;13.73;10.43;;;;;;;23.52;76.35;96565.38;5037824;28;20216;-72
2021/06/12 08:31:23;;;;;;;15.15;9.50;;;;;;;23.58;74.20;96568.94;5037527;28;20213;-72
2021/06/12 08:33:50;;;;;;;10.60;8.45;;;;;;;23.53;78.45;96566.16;5037531;28;20235;-72
2021/06/12 08:36:16;;;;;;;13.52;9.18;;;;;;;23.46;73.55;96563.66;5036695;28;20202;-72
2021/06/12 08:38:43;;;;;;;14.95;10.13;;;;;;;23.42;76.03;96567.91;5038504;28;20250;-74
2021/06/12 08:41:10;;;;;;;12.35;8.35;;;;;;;23.52;71.81;96568.06;5037118;28;20201;-73
2021/06/12 08:43:36;;;;;;;10.30;8.52;;;;;;;23.60;72.14;96566.78;5037199;28;20252;-72
2021/06/12 08:46:02;;;;;;;12.02;8.30;;;;;;;23.63;72.56;96561.72;5036353;28;20684;-72
2021/06/12 08:48:28;;;;;;;36.53;10.18;;;;;;;23.86;74.82;96564.19;5039225;28;20300;-72
2021/06/12 08:50:56;;;;;;;48.63;10.05;;;;;;;24.04;71.96;96563.88;5039594;28;20209;-74
2021/06/12 08:53:22;;;;;;;11.63;8.45;;;;;;;24.03;71.14;96562.25;5041080;28;20240;-73
2021/06/12 08:55:50;;;;;;;10.50;8.52;;;;;;;24.31;71.67;96552.06;5039766;28;21038;-74
2021/06/12 08:58:16;;;;;;;15.25;8.30;;;;;;;24.55;70.52;96560.66;5041078;28;20201;-73
2021/06/12 09:00:43;;;;;;;18.83;8.57;;;;;;;24.27;71.35;96552.81;5041192;28;20209;-72
2021/06/12 09:03:14;;;;;;;25.13;8.40;;;;;;;24.30;70.78;96560.38;5041709;28;20947;-73
2021/06/12 09:05:42;;;;;;;8.02;6.90;;;;;;;24.38;73.21;96557.25;5041520;28;20216;-73
2021/06/12 09:08:10;;;;;;;9.48;7.72;;;;;;;24.49;69.25;96557.13;5041656;28;20205;-72
2021/06/12 09:10:44;;;;;;;10.32;7.60;;;;;;;24.47;70.80;96555.75;5040405;28;20205;-72
2021/06/12 09:13:12;;;;;;;9.77;6.72;;;;;;;24.78;72.86;96537.69;5041332;28;20255;-72
2021/06/12 09:15:38;;;;;;;9.40;7.35;;;;;;;24.92;68.43;96546.16;5038430;28;20274;-73
2021/06/12 09:18:04;;;;;;;9.65;7.40;;;;;;;25.04;67.12;96550.28;5033341;28;20224;-74
2021/06/12 09:20:42;;;;;;;8.65;7.50;;;;;;;24.89;69.07;96547.47;5033951;28;20212;-73
2021/06/12 09:23:10;;;;;;;12.82;8.30;;;;;;;24.88;66.18;96545.03;5037596;28;20205;-72
2021/06/12 09:25:38;;;;;;;19.08;7.55;;;;;;;24.97;70.55;96549.69;5035160;28;21322;-75
2021/06/12 09:28:04;;;;;;;15.57;7.72;;;;;;;25.03;68.58;96554.06;5036482;28;20204;-73
2021/06/12 09:30:32;;;;;;;10.80;7.75;;;;;;;25.36;69.80;96548.38;5039397;28;20205;-76
2021/06/12 09:32:58;;;;;;;11.80;7.93;;;;;;;25.54;65.51;96540.63;5036348;28;20220;-74
2021/06/12 09:35:30;;;;;;;10.63;7.35;;;;;;;25.75;66.31;96537.00;5038712;28;20279;-74
2021/06/12 09:37:58;;;;;;;8.07;6.40;;;;;;;25.45;61.17;96538.72;5039670;28;20209;-72
2021/06/12 09:40:24;;;;;;;8.65;6.47;;;;;;;25.58;63.67;96538.22;5038916;28;20205;-72
2021/06/12 09:42:52;;;;;;;9.43;6.80;;;;;;;25.80;63.23;96537.00;5039029;28;21196;-72
2021/06/12 09:45:22;;;;;;;8.27;6.90;;;;;;;25.84;63.21;96547.03;5038344;28;20232;-73
2021/06/12 09:47:50;;;;;;;8.55;6.25;;;;;;;25.82;62.61;96541.06;5033396;28;20673;-72
2021/06/12 09:50:21;;;;;;;10.32;6.88;;;;;;;25.76;66.16;96538.59;5036066;28;20206;-73
2021/06/12 09:52:49;;;;;;;11.65;7.25;;;;;;;25.83;66.84;96541.88;5035696;28;20267;-72
2021/06/12 09:55:26;;;;;;;7.70;6.28;;;;;;;25.86;61.48;96538.66;5037374;28;20218;-73
2021/06/12 09:57:53;;;;;;;10.77;6.45;;;;;;;26.05;65.08;96532.50;5037931;28;20255;-72
2021/06/12 10:00:29;;;;;;;9.10;6.80;;;;;;;25.92;65.95;96538.41;5038871;28;20923;-72
2021/06/12 10:02:58;;;;;;;9.65;6.78;;;;;;;25.84;65.21;96536.22;5038593;28;20258;-73
2021/06/12 10:05:26;;;;;;;13.95;6.80;;;;;;;25.61;63.54;96535.81;5037576;28;20240;-73
2021/06/12 10:07:52;;;;;;;10.93;6.93;;;;;;;25.54;64.54;96529.03;5038750;28;20655;-73
2021/06/12 10:10:18;;;;;;;10.93;7.30;;;;;;;25.42;66.43;96525.72;5038795;28;20220;-74
2021/06/12 10:12:46;;;;;;;8.63;6.70;;;;;;;25.36;64.69;96532.19;5038175;28;20593;-73
2021/06/12 10:15:14;;;;;;;9.20;6.75;;;;;;;25.32;66.01;96544.56;5036973;28;20240;-74
2021/06/12 10:17:42;;;;;;;10.23;7.13;;;;;;;25.30;64.32;96552.09;5037988;28;20201;-72
2021/06/12 10:20:11;;;;;;;7.45;5.35;;;;;;;25.16;60.63;96545.53;5038285;28;20292;-72
2021/06/12 10:22:37;;;;;;;6.82;5.70;;;;;;;25.27;63.93;96536.44;5038405;28;21237;-74
2021/06/12 10:25:04;;;;;;;7.95;5.28;;;;;;;25.41;59.18;96538.41;5037599;28;20493;-73
2021/06/12 10:27:31;;;;;;;7.45;5.10;;;;;;;25.53;58.47;96544.41;5038238;28;20217;-73
2021/06/12 10:29:57;;;;;;;4.85;4.35;;;;;;;25.76;57.62;96538.59;5038304;28;20201;-73
2021/06/12 10:32:23;;;;;;;7.85;4.25;;;;;;;26.14;54.83;96532.78;5038156;28;20679;-73
2021/06/12 10:34:51;;;;;;;5.25;4.55;;;;;;;26.33;53.75;96532.03;5037822;28;20239;-75
2021/06/12 10:37:19;;;;;;;5.38;4.68;;;;;;;26.62;54.51;96530.47;5037635;28;20216;-73
2021/06/12 10:39:45;;;;;;;5.20;4.50;;;;;;;26.58;52.95;96532.91;5038311;28;20201;-72
2021/06/12 10:42:14;;;;;;;6.18;4.22;;;;;;;26.65;53.75;96527.22;5038377;28;20741;-73
2021/06/12 10:44:41;;;;;;;5.55;4.80;;;;;;;26.88;59.93;96521.28;5036722;28;20619;-73
2021/06/12 10:47:07;;;;;;;6.38;4.80;;;;;;;27.07;52.96;96520.47;5037083;28;21243;-74
2021/06/12 10:49:34;;;;;;;7.35;4.10;;;;;;;27.11;50.77;96525.06;5038182;28;20212;-73
2021/06/12 10:52:01;;;;;;;5.18;4.30;;;;;;;26.83;49.57;96518.56;5037908;28;20201;-76
2021/06/12 10:54:33;;;;;;;6.72;4.85;;;;;;;26.60;52.41;96511.00;5037579;28;20225;-74
2021/06/12 10:57:01;;;;;;;10.73;4.80;;;;;;;26.59;51.83;96506.66;5036622;28;20209;-76
2021/06/12 10:59:48;;;;;;;7.55;3.60;;;;;;;26.78;52.53;96510.44;5037859;28;21097;-72
2021/06/12 11:02:21;;;;;;;6.30;4.40;;;;;;;26.91;50.95;96508.03;5037769;28;20598;-72
2021/06/12 11:04:53;;;;;;;5.55;4.40;;;;;;;26.48;51.13;96513.16;5037538;28;20267;-72
2021/06/12 11:07:26;;;;;;;5.13;4.63;;;;;;;26.46;52.19;96505.31;5036982;28;20284;-74
2021/06/12 11:10:09;;;;;;;5.55;4.95;;;;;;;26.52;50.93;96508.84;5036630;28;20205;-72
2021/06/12 11:12:37;;;;;;;7.65;4.68;;;;;;;27.20;52.71;96500.97;5020963;28;20209;-72
2021/06/12 11:15:14;;;;;;;6.60;4.95;;;;;;;27.26;51.78;96513.41;5036703;28;20229;-73
2021/06/12 11:17:41;;;;;;;7.63;5.30;;;;;;;27.00;50.31;96501.00;5037182;28;20247;-73